Terminal Aerodrome Forecast
Issued by NWS Charleston, SC

Current Version | Previous Version | Text Only | Print | Product List | Glossary Off
Versions: 1 2 3 4 5 6 7 8 9 10 11 12 13 14 15 16 17 18 19 20 21 22 23 24 25

422
FTUS42 KCHS 290652 AAA
TAFCHS
TAF AMD
KCHS 290652Z 2907/3006 VRB03KT P6SM FEW004 SCT030 BKN150
     FM291300 VRB05KT P6SM SCT025 BKN140
     FM291900 14008KT P6SM SCT040 SCT080 BKN200
     FM300100 16003KT P6SM FEW030 SCT100=

USA.gov is the U.S. government's official web portal to all federal, state and local government web resources and services.